sensor_id;sensor_type;location;lat;lon;timestamp;pressure;altitude;pressure_sealevel;temperature;humidity
19783;BME280;10051;40.294;-3.754;2022-12-29T00:01:53;94728.91;;;9.64;99.41
19783;BME280;10051;40.294;-3.754;2022-12-29T00:04:20;94705.25;;;9.54;99.22
19783;BME280;10051;40.294;-3.754;2022-12-29T00:06:49;94831.31;;;10.44;98.58
19783;BME280;10051;40.294;-3.754;2022-12-29T00:09:16;94807.63;;;10.28;99.07
19783;BME280;10051;40.294;-3.754;2022-12-29T00:11:42;94825.00;;;10.39;99.43
19783;BME280;10051;40.294;-3.754;2022-12-29T00:14:12;94826.56;;;10.40;99.18
19783;BME280;10051;40.294;-3.754;2022-12-29T00:16:57;94816.25;;;10.23;98.99
19783;BME280;10051;40.294;-3.754;2022-12-29T00:19:23;94817.59;;;10.26;99.38
19783;BME280;10051;40.294;-3.754;2022-12-29T00:22:13;94823.91;;;10.25;99.84
19783;BME280;10051;40.294;-3.754;2022-12-29T00:24:57;94820.75;;;10.23;99.55
19783;BME280;10051;40.294;-3.754;2022-12-29T00:27:41;94823.91;;;10.30;99.64
19783;BME280;10051;40.294;-3.754;2022-12-29T00:30:25;94791.00;;;10.17;98.89
19783;BME280;10051;40.294;-3.754;2022-12-29T00:33:15;94817.63;;;10.41;98.71
19783;BME280;10051;40.294;-3.754;2022-12-29T00:36:12;94809.22;;;10.34;98.84
19783;BME280;10051;40.294;-3.754;2022-12-29T00:38:40;94786.28;;;10.19;99.50
19783;BME280;10051;40.294;-3.754;2022-12-29T00:41:26;94786.28;;;10.19;99.56
19783;BME280;10051;40.294;-3.754;2022-12-29T00:44:13;94791.84;;;10.23;100.00
19783;BME280;10051;40.294;-3.754;2022-12-29T00:46:40;94749.19;;;9.90;100.00
19783;BME280;10051;40.294;-3.754;2022-12-29T00:49:08;94752.09;;;9.93;100.00
19783;BME280;10051;40.294;-3.754;2022-12-29T00:51:54;94759.19;;;9.93;100.00
19783;BME280;10051;40.294;-3.754;2022-12-29T00:54:23;94779.69;;;10.06;100.00
19783;BME280;10051;40.294;-3.754;2022-12-29T00:56:50;94796.56;;;10.21;100.00
19783;BME280;10051;40.294;-3.754;2022-12-29T00:59:19;94658.16;;;9.27;100.00
19783;BME280;10051;40.294;-3.754;2022-12-29T01:01:46;94785.50;;;10.14;100.00
19783;BME280;10051;40.294;-3.754;2022-12-29T01:04:15;94760.22;;;9.97;100.00
19783;BME280;10051;40.294;-3.754;2022-12-29T01:06:41;94649.22;;;9.17;100.00
19783;BME280;10051;40.294;-3.754;2022-12-29T01:09:07;94679.75;;;9.39;100.00
19783;BME280;10051;40.294;-3.754;2022-12-29T01:11:52;94759.72;;;9.90;100.00
19783;BME280;10051;40.294;-3.754;2022-12-29T01:14:19;94783.34;;;9.95;100.00
19783;BME280;10051;40.294;-3.754;2022-12-29T01:16:45;94678.88;;;9.28;100.00
19783;BME280;10051;40.294;-3.754;2022-12-29T01:19:14;94779.69;;;9.91;100.00
19783;BME280;10051;40.294;-3.754;2022-12-29T01:21:40;94668.06;;;9.09;100.00
19783;BME280;10051;40.294;-3.754;2022-12-29T01:24:06;94757.00;;;9.69;100.00
19783;BME280;10051;40.294;-3.754;2022-12-29T01:26:31;94700.97;;;9.27;100.00
19783;BME280;10051;40.294;-3.754;2022-12-29T01:28:57;94655.97;;;8.98;100.00
19783;BME280;10051;40.294;-3.754;2022-12-29T01:31:23;94778.28;;;9.73;100.00
19783;BME280;10051;40.294;-3.754;2022-12-29T01:33:48;94772.78;;;9.74;100.00
19783;BME280;10051;40.294;-3.754;2022-12-29T01:36:18;94669.59;;;8.95;100.00
19783;BME280;10051;40.294;-3.754;2022-12-29T01:38:44;94630.94;;;8.74;100.00
19783;BME280;10051;40.294;-3.754;2022-12-29T01:41:12;94770.19;;;9.79;100.00
19783;BME280;10051;40.294;-3.754;2022-12-29T01:43:53;94676.47;;;9.11;100.00
19783;BME280;10051;40.294;-3.754;2022-12-29T01:49:12;94727.53;;;9.51;100.00
19783;BME280;10051;40.294;-3.754;2022-12-29T01:51:48;94679.41;;;9.20;100.00
19783;BME280;10051;40.294;-3.754;2022-12-29T01:56:52;94767.25;;;9.76;100.00
19783;BME280;10051;40.294;-3.754;2022-12-29T01:59:24;94709.34;;;9.29;100.00
19783;BME280;10051;40.294;-3.754;2022-12-29T02:01:50;94773.28;;;9.66;100.00
19783;BME280;10051;40.294;-3.754;2022-12-29T02:04:16;94753.78;;;9.46;100.00
19783;BME280;10051;40.294;-3.754;2022-12-29T02:06:55;94769.38;;;9.69;100.00
19783;BME280;10051;40.294;-3.754;2022-12-29T02:09:23;94746.97;;;9.50;100.00
19783;BME280;10051;40.294;-3.754;2022-12-29T02:11:49;94745.38;;;9.44;100.00
19783;BME280;10051;40.294;-3.754;2022-12-29T02:14:15;94682.50;;;9.06;100.00
19783;BME280;10051;40.294;-3.754;2022-12-29T02:27:34;94720.88;;;9.28;100.00
19783;BME280;10051;40.294;-3.754;2022-12-29T02:30:07;94771.13;;;9.58;100.00
19783;BME280;10051;40.294;-3.754;2022-12-29T02:32:54;94771.41;;;9.56;100.00
19783;BME280;10051;40.294;-3.754;2022-12-29T02:43:54;94719.06;;;9.29;100.00
19783;BME280;10051;40.294;-3.754;2022-12-29T02:51:54;94763.25;;;9.58;100.00
19783;BME280;10051;40.294;-3.754;2022-12-29T02:54:23;94755.63;;;9.51;100.00
19783;BME280;10051;40.294;-3.754;2022-12-29T02:59:52;94677.50;;;9.10;100.00
19783;BME280;10051;40.294;-3.754;2022-12-29T03:05:20;94758.31;;;9.72;100.00
19783;BME280;10051;40.294;-3.754;2022-12-29T03:08:05;94683.38;;;9.28;100.00
19783;BME280;10051;40.294;-3.754;2022-12-29T03:10:58;94743.38;;;9.72;100.00
19783;BME280;10051;40.294;-3.754;2022-12-29T03:13:46;94672.34;;;9.26;100.00
19783;BME280;10051;40.294;-3.754;2022-12-29T03:16:48;94667.63;;;9.28;100.00
19783;BME280;10051;40.294;-3.754;2022-12-29T03:19:24;94736.03;;;9.74;100.00
19783;BME280;10051;40.294;-3.754;2022-12-29T03:24:43;94717.66;;;9.79;100.00
19783;BME280;10051;40.294;-3.754;2022-12-29T03:27:15;94718.44;;;9.80;100.00
19783;BME280;10051;40.294;-3.754;2022-12-29T03:29:47;94663.16;;;9.33;100.00
19783;BME280;10051;40.294;-3.754;2022-12-29T03:32:19;94736.78;;;9.75;100.00
19783;BME280;10051;40.294;-3.754;2022-12-29T03:34:47;94726.03;;;9.71;100.00
19783;BME280;10051;40.294;-3.754;2022-12-29T03:37:17;94665.25;;;9.31;100.00
19783;BME280;10051;40.294;-3.754;2022-12-29T03:39:44;94715.00;;;9.69;100.00
19783;BME280;10051;40.294;-3.754;2022-12-29T03:42:14;94616.16;;;9.16;100.00
19783;BME280;10051;40.294;-3.754;2022-12-29T03:44:42;94596.16;;;9.00;100.00
19783;BME280;10051;40.294;-3.754;2022-12-29T03:47:10;94656.06;;;9.29;100.00
19783;BME280;10051;40.294;-3.754;2022-12-29T03:49:37;94722.34;;;9.67;100.00
19783;BME280;10051;40.294;-3.754;2022-12-29T03:52:02;94645.53;;;9.18;100.00
19783;BME280;10051;40.294;-3.754;2022-12-29T03:54:29;94625.81;;;9.05;100.00
19783;BME280;10051;40.294;-3.754;2022-12-29T03:56:56;94631.31;;;8.99;100.00
19783;BME280;10051;40.294;-3.754;2022-12-29T03:59:23;94645.81;;;9.17;100.00
19783;BME280;10051;40.294;-3.754;2022-12-29T04:01:49;94689.22;;;9.45;100.00
19783;BME280;10051;40.294;-3.754;2022-12-29T04:04:14;94657.16;;;9.33;100.00
19783;BME280;10051;40.294;-3.754;2022-12-29T04:06:40;94666.09;;;9.42;100.00
19783;BME280;10051;40.294;-3.754;2022-12-29T04:09:07;94704.47;;;9.64;100.00
19783;BME280;10051;40.294;-3.754;2022-12-29T04:11:32;94698.16;;;9.60;100.00
19783;BME280;10051;40.294;-3.754;2022-12-29T04:13:58;94696.06;;;9.57;100.00
19783;BME280;10051;40.294;-3.754;2022-12-29T04:16:24;94666.06;;;9.32;100.00
19783;BME280;10051;40.294;-3.754;2022-12-29T04:18:49;94701.84;;;9.59;100.00
19783;BME280;10051;40.294;-3.754;2022-12-29T04:21:15;94592.97;;;8.87;100.00
19783;BME280;10051;40.294;-3.754;2022-12-29T04:23:41;94597.69;;;8.85;100.00
19783;BME280;10051;40.294;-3.754;2022-12-29T04:26:07;94652.91;;;9.21;100.00
19783;BME280;10051;40.294;-3.754;2022-12-29T04:28:34;94637.09;;;9.06;100.00
19783;BME280;10051;40.294;-3.754;2022-12-29T04:31:00;94675.03;;;9.41;99.45
19783;BME280;10051;40.294;-3.754;2022-12-29T04:33:26;94604.03;;;8.95;99.87
19783;BME280;10051;40.294;-3.754;2022-12-29T04:35:53;94671.31;;;9.32;100.00
19783;BME280;10051;40.294;-3.754;2022-12-29T04:38:20;94661.84;;;9.26;99.34
19783;BME280;10051;40.294;-3.754;2022-12-29T04:40:46;94686.34;;;9.52;98.54
19783;BME280;10051;40.294;-3.754;2022-12-29T04:43:12;94607.72;;;8.99;98.18
19783;BME280;10051;40.294;-3.754;2022-12-29T04:45:42;94676.59;;;9.42;98.12
19783;BME280;10051;40.294;-3.754;2022-12-29T04:48:08;94571.38;;;8.70;98.05
19783;BME280;10051;40.294;-3.754;2022-12-29T04:50:34;94644.50;;;9.25;97.89
19783;BME280;10051;40.294;-3.754;2022-12-29T04:53:00;94588.78;;;8.86;97.91
19783;BME280;10051;40.294;-3.754;2022-12-29T04:55:26;94694.19;;;9.47;98.27
19783;BME280;10051;40.294;-3.754;2022-12-29T04:57:52;94575.84;;;8.64;98.84
19783;BME280;10051;40.294;-3.754;2022-12-29T05:00:18;94690.22;;;9.34;100.00
19783;BME280;10051;40.294;-3.754;2022-12-29T05:02:44;94670.50;;;9.21;100.00
19783;BME280;10051;40.294;-3.754;2022-12-29T05:05:10;94605.56;;;8.85;99.61
19783;BME280;10051;40.294;-3.754;2022-12-29T05:07:35;94605.56;;;8.85;98.96
19783;BME280;10051;40.294;-3.754;2022-12-29T05:10:01;94597.09;;;8.73;98.48
19783;BME280;10051;40.294;-3.754;2022-12-29T05:12:30;94703.16;;;9.56;97.08
19783;BME280;10051;40.294;-3.754;2022-12-29T05:14:56;94691.03;;;9.45;96.71
19783;BME280;10051;40.294;-3.754;2022-12-29T05:17:22;94706.00;;;9.55;97.01
19783;BME280;10051;40.294;-3.754;2022-12-29T05:19:47;94701.84;;;9.59;96.63
19783;BME280;10051;40.294;-3.754;2022-12-29T05:22:13;94602.16;;;8.90;96.16
19783;BME280;10051;40.294;-3.754;2022-12-29T05:24:40;94645.56;;;9.23;95.92
19783;BME280;10051;40.294;-3.754;2022-12-29T05:27:05;94595.63;;;8.92;96.64
19783;BME280;10051;40.294;-3.754;2022-12-29T05:29:31;94627.38;;;9.01;96.13
19783;BME280;10051;40.294;-3.754;2022-12-29T05:31:57;94690.25;;;9.44;96.48
19783;BME280;10051;40.294;-3.754;2022-12-29T05:34:22;94677.06;;;9.29;97.15
19783;BME280;10051;40.294;-3.754;2022-12-29T05:36:48;94712.34;;;9.59;96.62
19783;BME280;10051;40.294;-3.754;2022-12-29T05:39:14;94656.84;;;9.19;96.95
19783;BME280;10051;40.294;-3.754;2022-12-29T05:41:39;94722.84;;;9.59;97.73
19783;BME280;10051;40.294;-3.754;2022-12-29T05:44:05;94632.13;;;9.10;97.11
19783;BME280;10051;40.294;-3.754;2022-12-29T05:46:31;94634.50;;;9.11;96.45
19783;BME280;10051;40.294;-3.754;2022-12-29T05:48:56;94723.91;;;9.68;96.62
19783;BME280;10051;40.294;-3.754;2022-12-29T05:51:22;94597.63;;;8.75;96.42
19783;BME280;10051;40.294;-3.754;2022-12-29T05:53:48;94684.13;;;9.28;97.41
19783;BME280;10051;40.294;-3.754;2022-12-29T05:56:13;94688.63;;;9.33;97.35
19783;BME280;10051;40.294;-3.754;2022-12-29T05:58:39;94739.66;;;9.63;97.13
19783;BME280;10051;40.294;-3.754;2022-12-29T06:01:05;94725.19;;;9.55;96.56
19783;BME280;10051;40.294;-3.754;2022-12-29T06:03:30;94668.69;;;9.32;95.87
19783;BME280;10051;40.294;-3.754;2022-12-29T06:05:56;94692.34;;;9.52;94.50
19783;BME280;10051;40.294;-3.754;2022-12-29T06:08:22;94666.59;;;9.34;94.11
19783;BME280;10051;40.294;-3.754;2022-12-29T06:10:47;94733.41;;;9.74;94.25
19783;BME280;10051;40.294;-3.754;2022-12-29T06:13:13;94710.75;;;9.58;93.91
19783;BME280;10051;40.294;-3.754;2022-12-29T06:15:38;94663.66;;;9.20;94.24
19783;BME280;10051;40.294;-3.754;2022-12-29T06:18:04;94717.06;;;9.62;93.59
19783;BME280;10051;40.294;-3.754;2022-12-29T06:20:30;94698.66;;;9.51;92.84
19783;BME280;10051;40.294;-3.754;2022-12-29T06:22:55;94733.88;;;9.61;94.22
19783;BME280;10051;40.294;-3.754;2022-12-29T06:25:21;94678.38;;;9.26;93.84
19783;BME280;10051;40.294;-3.754;2022-12-29T06:27:46;94733.59;;;9.52;94.54
19783;BME280;10051;40.294;-3.754;2022-12-29T06:30:12;94635.44;;;8.84;95.35
19783;BME280;10051;40.294;-3.754;2022-12-29T06:32:38;94739.88;;;9.51;95.05
19783;BME280;10051;40.294;-3.754;2022-12-29T06:35:05;94671.19;;;9.01;94.67
19783;BME280;10051;40.294;-3.754;2022-12-29T06:37:31;94633.09;;;8.83;94.48
19783;BME280;10051;40.294;-3.754;2022-12-29T06:39:57;94736.47;;;9.56;94.10
19783;BME280;10051;40.294;-3.754;2022-12-29T06:42:23;94719.63;;;9.41;93.99
19783;BME280;10051;40.294;-3.754;2022-12-29T06:44:48;94703.88;;;9.36;93.40
19783;BME280;10051;40.294;-3.754;2022-12-29T06:47:15;94707.03;;;9.38;92.86
19783;BME280;10051;40.294;-3.754;2022-12-29T06:49:40;94620.16;;;8.71;93.21
19783;BME280;10051;40.294;-3.754;2022-12-29T06:52:06;94711.22;;;9.34;92.84
19783;BME280;10051;40.294;-3.754;2022-12-29T06:54:32;94594.66;;;8.56;93.41
19783;BME280;10051;40.294;-3.754;2022-12-29T06:57:01;94758.00;;;9.58;93.51
19783;BME280;10051;40.294;-3.754;2022-12-29T06:59:29;94651.69;;;8.81;93.95
19783;BME280;10051;40.294;-3.754;2022-12-29T07:01:55;94682.72;;;8.95;94.25
19783;BME280;10051;40.294;-3.754;2022-12-29T07:04:20;94702.94;;;9.04;94.46
19783;BME280;10051;40.294;-3.754;2022-12-29T07:06:48;94771.13;;;9.52;94.52
19783;BME280;10051;40.294;-3.754;2022-12-29T07:09:14;94696.91;;;9.04;94.90
19783;BME280;10051;40.294;-3.754;2022-12-29T07:11:39;94759.56;;;9.43;95.13
19783;BME280;10051;40.294;-3.754;2022-12-29T07:14:05;94771.34;;;9.46;94.81
19783;BME280;10051;40.294;-3.754;2022-12-29T07:16:31;94665.81;;;8.75;95.19
19783;BME280;10051;40.294;-3.754;2022-12-29T07:18:57;94780.28;;;9.45;94.74
19783;BME280;10051;40.294;-3.754;2022-12-29T07:21:24;94774.75;;;9.36;94.32
19783;BME280;10051;40.294;-3.754;2022-12-29T07:23:50;94702.09;;;8.93;94.42
19783;BME280;10051;40.294;-3.754;2022-12-29T07:26:16;94734.16;;;9.01;94.51
19783;BME280;10051;40.294;-3.754;2022-12-29T07:28:44;94640.44;;;8.43;94.99
19783;BME280;10051;40.294;-3.754;2022-12-29T07:31:21;94744.19;;;9.14;94.32
19783;BME280;10051;40.294;-3.754;2022-12-29T07:33:47;94769.97;;;9.28;93.90
19783;BME280;10051;40.294;-3.754;2022-12-29T07:36:14;94644.81;;;8.32;93.97
19783;BME280;10051;40.294;-3.754;2022-12-29T07:38:41;94778.63;;;9.28;93.68
19783;BME280;10051;40.294;-3.754;2022-12-29T07:41:08;94780.47;;;9.28;94.14
19783;BME280;10051;40.294;-3.754;2022-12-29T07:43:34;94768.91;;;9.23;93.45
19783;BME280;10051;40.294;-3.754;2022-12-29T07:46:00;94656.50;;;8.52;94.06
19783;BME280;10051;40.294;-3.754;2022-12-29T07:48:26;94738.31;;;8.97;94.39
19783;BME280;10051;40.294;-3.754;2022-12-29T07:50:52;94763.53;;;9.03;94.80
19783;BME280;10051;40.294;-3.754;2022-12-29T07:53:18;94687.22;;;8.61;94.79
19783;BME280;10051;40.294;-3.754;2022-12-29T07:55:43;94776.28;;;9.32;94.33
19783;BME280;10051;40.294;-3.754;2022-12-29T07:58:09;94704.38;;;8.74;94.87
19783;BME280;10051;40.294;-3.754;2022-12-29T08:00:35;94745.97;;;9.03;95.53
19783;BME280;10051;40.294;-3.754;2022-12-29T08:03:01;94746.34;;;8.85;96.54
19783;BME280;10051;40.294;-3.754;2022-12-29T08:05:26;94750.84;;;8.84;97.03
19783;BME280;10051;40.294;-3.754;2022-12-29T08:07:52;94718.72;;;8.67;96.63
19783;BME280;10051;40.294;-3.754;2022-12-29T08:10:18;94798.53;;;9.19;97.34
19783;BME280;10051;40.294;-3.754;2022-12-29T08:12:46;94778.97;;;8.99;97.26
19783;BME280;10051;40.294;-3.754;2022-12-29T08:15:11;94683.09;;;8.33;97.39
19783;BME280;10051;40.294;-3.754;2022-12-29T08:17:37;94797.66;;;9.03;97.79
19783;BME280;10051;40.294;-3.754;2022-12-29T08:20:03;94745.00;;;8.77;97.95
19783;BME280;10051;40.294;-3.754;2022-12-29T08:22:30;94774.22;;;8.91;97.78
19783;BME280;10051;40.294;-3.754;2022-12-29T08:24:55;94780.84;;;8.99;98.48
19783;BME280;10051;40.294;-3.754;2022-12-29T08:27:21;94689.97;;;8.44;98.29
19783;BME280;10051;40.294;-3.754;2022-12-29T08:29:47;94812.25;;;9.36;98.76
19783;BME280;10051;40.294;-3.754;2022-12-29T08:32:13;94683.44;;;8.47;100.00
19783;BME280;10051;40.294;-3.754;2022-12-29T08:34:38;94753.56;;;9.00;100.00
19783;BME280;10051;40.294;-3.754;2022-12-29T08:37:04;94717.25;;;8.81;100.00
19783;BME280;10051;40.294;-3.754;2022-12-29T08:39:30;94797.38;;;9.52;100.00
19783;BME280;10051;40.294;-3.754;2022-12-29T08:41:55;94722.31;;;8.98;100.00
19783;BME280;10051;40.294;-3.754;2022-12-29T08:44:21;94789.25;;;9.54;100.00
19783;BME280;10051;40.294;-3.754;2022-12-29T08:46:47;94805.41;;;9.84;100.00
19783;BME280;10051;40.294;-3.754;2022-12-29T08:49:13;94729.09;;;9.42;100.00
19783;BME280;10051;40.294;-3.754;2022-12-29T08:51:38;94765.13;;;9.62;100.00
19783;BME280;10051;40.294;-3.754;2022-12-29T08:54:04;94811.78;;;10.14;100.00
19783;BME280;10051;40.294;-3.754;2022-12-29T08:56:30;94741.75;;;9.61;100.00
19783;BME280;10051;40.294;-3.754;2022-12-29T08:58:55;94774.91;;;9.82;100.00
19783;BME280;10051;40.294;-3.754;2022-12-29T09:01:21;94838.38;;;10.33;100.00
19783;BME280;10051;40.294;-3.754;2022-12-29T09:03:47;94783.91;;;10.07;100.00
19783;BME280;10051;40.294;-3.754;2022-12-29T09:06:15;94740.72;;;9.67;100.00
19783;BME280;10051;40.294;-3.754;2022-12-29T09:08:42;94831.28;;;10.38;100.00
19783;BME280;10051;40.294;-3.754;2022-12-29T09:11:21;94825.50;;;10.36;100.00
19783;BME280;10051;40.294;-3.754;2022-12-29T09:13:47;94771.81;;;10.01;100.00
19783;BME280;10051;40.294;-3.754;2022-12-29T09:16:13;94838.69;;;10.47;100.00
19783;BME280;10051;40.294;-3.754;2022-12-29T09:18:40;94836.34;;;10.55;100.00
19783;BME280;10051;40.294;-3.754;2022-12-29T09:21:08;94796.56;;;10.21;100.00
19783;BME280;10051;40.294;-3.754;2022-12-29T09:23:35;94755.53;;;10.04;100.00
19783;BME280;10051;40.294;-3.754;2022-12-29T09:26:01;94842.91;;;10.63;100.00
19783;BME280;10051;40.294;-3.754;2022-12-29T09:28:31;94736.06;;;9.85;100.00
19783;BME280;10051;40.294;-3.754;2022-12-29T09:30:57;94741.84;;;9.97;100.00
19783;BME280;10051;40.294;-3.754;2022-12-29T09:33:24;94781.34;;;10.28;100.00
19783;BME280;10051;40.294;-3.754;2022-12-29T09:35:55;94768.16;;;10.12;100.00
19783;BME280;10051;40.294;-3.754;2022-12-29T09:38:25;94852.13;;;10.71;100.00
19783;BME280;10051;40.294;-3.754;2022-12-29T09:40:53;94761.31;;;10.17;100.00
19783;BME280;10051;40.294;-3.754;2022-12-29T09:48:52;94805.81;;;10.44;100.00
19783;BME280;10051;40.294;-3.754;2022-12-29T09:51:22;94860.28;;;10.90;100.00
19783;BME280;10051;40.294;-3.754;2022-12-29T09:53:57;94782.41;;;10.43;100.00
19783;BME280;10051;40.294;-3.754;2022-12-29T09:56:25;94801.38;;;10.60;100.00
19783;BME280;10051;40.294;-3.754;2022-12-29T09:58:57;94861.88;;;10.96;100.00
19783;BME280;10051;40.294;-3.754;2022-12-29T10:01:38;94827.94;;;10.79;100.00
19783;BME280;10051;40.294;-3.754;2022-12-29T10:04:05;94801.91;;;10.73;100.00
19783;BME280;10051;40.294;-3.754;2022-12-29T10:09:33;94860.53;;;11.25;100.00
19783;BME280;10051;40.294;-3.754;2022-12-29T10:14:54;94779.81;;;10.79;100.00
19783;BME280;10051;40.294;-3.754;2022-12-29T10:20:32;94869.19;;;11.51;100.00
19783;BME280;10051;40.294;-3.754;2022-12-29T10:23:26;94825.53;;;11.24;100.00
19783;BME280;10051;40.294;-3.754;2022-12-29T10:26:00;94837.09;;;11.28;100.00
19783;BME280;10051;40.294;-3.754;2022-12-29T10:28:43;94875.50;;;11.55;100.00
19783;BME280;10051;40.294;-3.754;2022-12-29T10:31:22;94807.13;;;11.14;100.00
19783;BME280;10051;40.294;-3.754;2022-12-29T10:33:57;94878.16;;;11.55;100.00
19783;BME280;10051;40.294;-3.754;2022-12-29T10:36:34;94882.06;;;11.63;100.00
19783;BME280;10051;40.294;-3.754;2022-12-29T10:39:19;94866.03;;;11.54;100.00
19783;BME280;10051;40.294;-3.754;2022-12-29T10:41:51;94886.28;;;11.64;100.00
19783;BME280;10051;40.294;-3.754;2022-12-29T10:44:30;94883.91;;;11.68;100.00
19783;BME280;10051;40.294;-3.754;2022-12-29T10:47:00;94879.41;;;11.73;100.00
19783;BME280;10051;40.294;-3.754;2022-12-29T10:49:28;94764.50;;;11.07;100.00
19783;BME280;10051;40.294;-3.754;2022-12-29T10:51:58;94766.59;;;11.15;100.00
19783;BME280;10051;40.294;-3.754;2022-12-29T10:57:20;94859.06;;;11.95;97.88
19783;BME280;10051;40.294;-3.754;2022-12-29T10:59:49;94862.75;;;11.99;95.99
19783;BME280;10051;40.294;-3.754;2022-12-29T11:07:32;94846.44;;;11.81;98.92
19783;BME280;10051;40.294;-3.754;2022-12-29T11:13:01;94814.38;;;11.64;100.00
19783;BME280;10051;40.294;-3.754;2022-12-29T11:15:38;94841.69;;;11.83;100.00
19783;BME280;10051;40.294;-3.754;2022-12-29T11:18:18;94833.81;;;11.73;100.00
19783;BME280;10051;40.294;-3.754;2022-12-29T11:20:44;94748.69;;;11.17;100.00
19783;BME280;10051;40.294;-3.754;2022-12-29T11:28:37;94808.78;;;11.81;99.87
19783;BME280;10051;40.294;-3.754;2022-12-29T11:31:04;94804.84;;;11.78;100.00
19783;BME280;10051;40.294;-3.754;2022-12-29T11:33:31;94747.53;;;11.44;100.00
19783;BME280;10051;40.294;-3.754;2022-12-29T11:36:11;94813.41;;;12.10;100.00
19783;BME280;10051;40.294;-3.754;2022-12-29T11:38:40;94746.34;;;11.76;100.00
19783;BME280;10051;40.294;-3.754;2022-12-29T11:41:19;94698.94;;;11.76;99.54
19783;BME280;10051;40.294;-3.754;2022-12-29T11:43:46;94728.56;;;12.08;99.20
19783;BME280;10051;40.294;-3.754;2022-12-29T11:46:32;94793.41;;;12.54;96.50
19783;BME280;10051;40.294;-3.754;2022-12-29T11:48:59;94789.19;;;12.53;95.91
19783;BME280;10051;40.294;-3.754;2022-12-29T11:51:47;94775.81;;;12.39;98.06
19783;BME280;10051;40.294;-3.754;2022-12-29T11:54:36;94723.53;;;12.11;98.07
19783;BME280;10051;40.294;-3.754;2022-12-29T11:57:12;94755.94;;;12.12;99.55
19783;BME280;10051;40.294;-3.754;2022-12-29T11:59:48;94806.19;;;12.31;100.00
19783;BME280;10051;40.294;-3.754;2022-12-29T12:02:32;94735.56;;;11.72;100.00
19783;BME280;10051;40.294;-3.754;2022-12-29T12:05:23;94806.84;;;12.12;100.00
19783;BME280;10051;40.294;-3.754;2022-12-29T12:07:57;94712.22;;;11.50;100.00
19783;BME280;10051;40.294;-3.754;2022-12-29T12:10:33;94799.41;;;12.14;100.00
19783;BME280;10051;40.294;-3.754;2022-12-29T12:15:52;94754.25;;;11.76;100.00
19783;BME280;10051;40.294;-3.754;2022-12-29T12:18:41;94743.19;;;11.74;100.00
19783;BME280;10051;40.294;-3.754;2022-12-29T12:21:30;94780.50;;;11.97;100.00
19783;BME280;10051;40.294;-3.754;2022-12-29T12:24:05;94780.50;;;11.97;100.00
19783;BME280;10051;40.294;-3.754;2022-12-29T12:26:42;94725.88;;;11.68;100.00
19783;BME280;10051;40.294;-3.754;2022-12-29T12:29:18;94776.53;;;12.04;100.00
19783;BME280;10051;40.294;-3.754;2022-12-29T12:31:57;94735.78;;;11.81;100.00
19783;BME280;10051;40.294;-3.754;2022-12-29T12:34:30;94785.94;;;12.21;100.00
19783;BME280;10051;40.294;-3.754;2022-12-29T12:48:25;94759.59;;;12.21;100.00
19783;BME280;10051;40.294;-3.754;2022-12-29T12:57:07;94759.09;;;12.14;100.00
19783;BME280;10051;40.294;-3.754;2022-12-29T13:05:24;94744.56;;;12.16;100.00
19783;BME280;10051;40.294;-3.754;2022-12-29T13:08:26;94702.53;;;11.90;100.00
19783;BME280;10051;40.294;-3.754;2022-12-29T13:14:34;94734.59;;;12.13;100.00
19783;BME280;10051;40.294;-3.754;2022-12-29T13:17:14;94698.34;;;11.89;100.00
19783;BME280;10051;40.294;-3.754;2022-12-29T13:19:57;94707.25;;;12.04;100.00
19783;BME280;10051;40.294;-3.754;2022-12-29T13:30:40;94679.91;;;11.84;100.00
19783;BME280;10051;40.294;-3.754;2022-12-29T13:33:20;94719.53;;;12.19;100.00
19783;BME280;10051;40.294;-3.754;2022-12-29T13:35:55;94718.97;;;12.22;100.00
19783;BME280;10051;40.294;-3.754;2022-12-29T13:38:26;94717.63;;;12.25;100.00
19783;BME280;10051;40.294;-3.754;2022-12-29T13:41:03;94655.97;;;11.81;100.00
19783;BME280;10051;40.294;-3.754;2022-12-29T13:43:34;94601.66;;;11.45;100.00
19783;BME280;10051;40.294;-3.754;2022-12-29T13:46:15;94661.94;;;11.92;100.00
19783;BME280;10051;40.294;-3.754;2022-12-29T13:48:51;94687.72;;;12.05;100.00
19783;BME280;10051;40.294;-3.754;2022-12-29T13:51:19;94679.06;;;11.99;100.00
19783;BME280;10051;40.294;-3.754;2022-12-29T13:59:38;94709.72;;;12.25;100.00
19783;BME280;10051;40.294;-3.754;2022-12-29T14:04:56;94650.41;;;11.82;100.00
19783;BME280;10051;40.294;-3.754;2022-12-29T14:07:22;94695.75;;;12.24;100.00
19783;BME280;10051;40.294;-3.754;2022-12-29T14:09:50;94690.56;;;12.14;100.00
19783;BME280;10051;40.294;-3.754;2022-12-29T14:12:32;94688.66;;;12.19;100.00
19783;BME280;10051;40.294;-3.754;2022-12-29T14:15:23;94684.38;;;12.29;100.00
19783;BME280;10051;40.294;-3.754;2022-12-29T14:23:43;94689.50;;;12.49;100.00
19783;BME280;10051;40.294;-3.754;2022-12-29T14:28:49;94661.66;;;12.33;100.00
19783;BME280;10051;40.294;-3.754;2022-12-29T14:33:41;94684.34;;;12.63;100.00
19783;BME280;10051;40.294;-3.754;2022-12-29T14:39:33;94674.94;;;12.82;100.00
19783;BME280;10051;40.294;-3.754;2022-12-29T14:42:06;94678.59;;;12.86;100.00
19783;BME280;10051;40.294;-3.754;2022-12-29T14:45:00;94653.97;;;12.66;100.00
19783;BME280;10051;40.294;-3.754;2022-12-29T14:47:36;94606.47;;;12.42;100.00
19783;BME280;10051;40.294;-3.754;2022-12-29T14:52:58;94681.34;;;12.75;100.00
19783;BME280;10051;40.294;-3.754;2022-12-29T14:55:44;94679.53;;;12.71;100.00
19783;BME280;10051;40.294;-3.754;2022-12-29T14:58:22;94684.34;;;12.63;100.00
19783;BME280;10051;40.294;-3.754;2022-12-29T15:00:52;94694.06;;;12.68;100.00
19783;BME280;10051;40.294;-3.754;2022-12-29T15:03:21;94693.84;;;12.64;100.00
19783;BME280;10051;40.294;-3.754;2022-12-29T15:08:39;94658.44;;;12.41;100.00
19783;BME280;10051;40.294;-3.754;2022-12-29T15:11:18;94644.56;;;12.30;100.00
19783;BME280;10051;40.294;-3.754;2022-12-29T15:13:45;94632.22;;;12.20;100.00
19783;BME280;10051;40.294;-3.754;2022-12-29T15:18:55;94655.34;;;12.34;100.00
19783;BME280;10051;40.294;-3.754;2022-12-29T15:21:26;94661.13;;;12.36;100.00
19783;BME280;10051;40.294;-3.754;2022-12-29T15:23:52;94682.31;;;12.55;100.00
19783;BME280;10051;40.294;-3.754;2022-12-29T15:26:18;94591.31;;;11.94;100.00